OEABW LKPR-LZIB
Flight info
| Callsign | OEABW |
|---|---|
| Flight time | 0h 49m |
| Altitude | 7000 |
| Route | VOZ5N/30 VOZ DCT LIKSA DCT PEPIK DCT BERVA |
| Aircraft | DA62/L-SDFGRY/C |
Departure
| Time | 2026-05-07 18:55 |
|---|---|
| Airport | Václav Havel Airport Prague (LKPR) |
Arrival
| Time | 2026-05-07 19:45 |
|---|---|
| Airport | M. R. Štefánik Airport (LZIB) |
| Time | Latitude | Longitude | Altitude | Speed | Heading |
|---|---|---|---|---|---|
| 2026-05-07 18:40 | 50.09802 | 14.27875 | 1192 ft | 0 kts | 307° |
| 2026-05-07 18:48 | 50.09804 | 14.27870 | 1192 ft | 3 kts | 305° |
| 2026-05-07 18:49 | 50.09799 | 14.27833 | 1192 ft | 5 kts | 206° |
| 2026-05-07 18:49 | 50.09758 | 14.27815 | 1194 ft | 7 kts | 202° |
| 2026-05-07 18:49 | 50.09712 | 14.27767 | 1196 ft | 9 kts | 218° |
| 2026-05-07 18:49 | 50.09658 | 14.27703 | 1198 ft | 10 kts | 218° |
| 2026-05-07 18:50 | 50.09604 | 14.27640 | 1202 ft | 9 kts | 215° |
| 2026-05-07 18:50 | 50.09558 | 14.27585 | 1205 ft | 8 kts | 216° |
| 2026-05-07 18:50 | 50.09518 | 14.27542 | 1209 ft | 6 kts | 216° |
| 2026-05-07 18:50 | 50.09492 | 14.27511 | 1211 ft | 3 kts | 216° |
| 2026-05-07 18:51 | 50.09457 | 14.27470 | 1212 ft | 9 kts | 218° |
| 2026-05-07 18:51 | 50.09423 | 14.27400 | 1213 ft | 7 kts | 277° |
| 2026-05-07 18:51 | 50.09428 | 14.27379 | 1213 ft | 0 kts | 306° |
| 2026-05-07 18:53 | 50.09438 | 14.27360 | 1213 ft | 19 kts | 307° |
| 2026-05-07 18:53 | 50.09663 | 14.26899 | 1235 ft | 78 kts | 306° |
| 2026-05-07 18:54 | 50.10001 | 14.26162 | 1352 ft | 96 kts | 303° |
| 2026-05-07 18:54 | 50.10364 | 14.25357 | 1588 ft | 93 kts | 303° |
| 2026-05-07 18:54 | 50.10790 | 14.24422 | 1566 ft | 118 kts | 303° |
| 2026-05-07 18:54 | 50.11288 | 14.23326 | 1616 ft | 129 kts | 303° |
| 2026-05-07 18:55 | 50.11429 | 14.23015 | 1632 ft | 131 kts | 303° |
| 2026-05-07 18:55 | 50.11947 | 14.21858 | 1713 ft | 135 kts | 303° |
| 2026-05-07 18:55 | 50.12481 | 14.20669 | 1803 ft | 136 kts | 303° |
| 2026-05-07 18:55 | 50.12932 | 14.19402 | 1893 ft | 137 kts | 284° |
| 2026-05-07 18:56 | 50.12826 | 14.17965 | 1965 ft | 139 kts | 242° |
| 2026-05-07 18:56 | 50.12255 | 14.17170 | 2029 ft | 144 kts | 206° |
| 2026-05-07 18:56 | 50.11254 | 14.17135 | 2111 ft | 150 kts | 161° |
| 2026-05-07 18:56 | 50.10435 | 14.18003 | 2193 ft | 152 kts | 144° |
| 2026-05-07 18:57 | 50.09600 | 14.18777 | 2277 ft | 151 kts | 156° |
| 2026-05-07 18:57 | 50.08679 | 14.19361 | 2366 ft | 151 kts | 162° |
| 2026-05-07 18:57 | 50.07724 | 14.19821 | 2457 ft | 151 kts | 166° |
| 2026-05-07 18:57 | 50.07151 | 14.20058 | 2509 ft | 151 kts | 167° |
| 2026-05-07 18:58 | 50.06632 | 14.20260 | 2558 ft | 151 kts | 168° |
| 2026-05-07 18:58 | 50.05685 | 14.20607 | 2645 ft | 151 kts | 169° |
| 2026-05-07 18:58 | 50.04750 | 14.20938 | 2733 ft | 152 kts | 169° |
| 2026-05-07 18:58 | 50.03813 | 14.21264 | 2819 ft | 152 kts | 169° |
| 2026-05-07 18:59 | 50.02877 | 14.21587 | 2985 ft | 147 kts | 169° |
| 2026-05-07 18:59 | 50.01989 | 14.21893 | 3188 ft | 142 kts | 169° |
| 2026-05-07 18:59 | 50.01124 | 14.22190 | 3357 ft | 141 kts | 169° |
| 2026-05-07 18:59 | 50.00250 | 14.22491 | 3528 ft | 140 kts | 169° |
| 2026-05-07 19:00 | 49.99384 | 14.22789 | 3696 ft | 140 kts | 169° |
| 2026-05-07 19:00 | 49.98524 | 14.23084 | 3856 ft | 140 kts | 169° |
| 2026-05-07 19:00 | 49.97651 | 14.23384 | 4014 ft | 141 kts | 169° |
| 2026-05-07 19:00 | 49.96798 | 14.23676 | 4257 ft | 134 kts | 169° |
| 2026-05-07 19:01 | 49.95997 | 14.23951 | 4519 ft | 129 kts | 170° |
| 2026-05-07 19:01 | 49.95208 | 14.24222 | 4751 ft | 127 kts | 171° |
| 2026-05-07 19:01 | 49.94425 | 14.24490 | 4972 ft | 127 kts | 171° |
| 2026-05-07 19:01 | 49.93658 | 14.24752 | 5183 ft | 127 kts | 171° |
| 2026-05-07 19:02 | 49.92873 | 14.25020 | 5395 ft | 127 kts | 171° |
| 2026-05-07 19:02 | 49.92081 | 14.25290 | 5613 ft | 127 kts | 171° |
| 2026-05-07 19:02 | 49.91307 | 14.25583 | 5820 ft | 129 kts | 162° |
| 2026-05-07 19:02 | 49.90631 | 14.26297 | 6031 ft | 131 kts | 143° |
| 2026-05-07 19:03 | 49.90025 | 14.27142 | 6236 ft | 132 kts | 139° |
| 2026-05-07 19:03 | 49.89438 | 14.28040 | 6450 ft | 132 kts | 137° |
| 2026-05-07 19:03 | 49.88870 | 14.28947 | 6656 ft | 133 kts | 136° |
| 2026-05-07 19:03 | 49.88295 | 14.29884 | 6877 ft | 133 kts | 136° |
| 2026-05-07 19:04 | 49.87714 | 14.30839 | 6993 ft | 140 kts | 136° |
| 2026-05-07 19:04 | 49.87088 | 14.31872 | 7020 ft | 151 kts | 136° |
| 2026-05-07 19:04 | 49.86433 | 14.32953 | 7014 ft | 159 kts | 135° |
| 2026-05-07 19:04 | 49.86232 | 14.33288 | 7014 ft | 161 kts | 135° |
| 2026-05-07 19:05 | 49.86053 | 14.33584 | 7015 ft | 162 kts | 135° |
| 2026-05-07 19:05 | 49.85338 | 14.34770 | 7014 ft | 166 kts | 135° |
| 2026-05-07 19:05 | 49.84607 | 14.35981 | 7011 ft | 169 kts | 135° |
| 2026-05-07 19:05 | 49.84026 | 14.36945 | 7013 ft | 170 kts | 135° |
| 2026-05-07 19:06 | 49.83869 | 14.37206 | 7013 ft | 170 kts | 135° |
| 2026-05-07 19:06 | 49.83432 | 14.37931 | 7020 ft | 171 kts | 135° |
| 2026-05-07 19:06 | 49.82710 | 14.39125 | 7014 ft | 172 kts | 135° |
| 2026-05-07 19:07 | 49.81962 | 14.40365 | 7020 ft | 173 kts | 135° |
| 2026-05-07 19:07 | 49.81214 | 14.41603 | 7013 ft | 173 kts | 135° |
| 2026-05-07 19:07 | 49.77583 | 14.47599 | 7027 ft | 173 kts | 135° |
| 2026-05-07 19:07 | 49.76888 | 14.48746 | 7012 ft | 174 kts | 135° |
| 2026-05-07 19:08 | 49.76400 | 14.49550 | 7007 ft | 173 kts | 135° |
| 2026-05-07 19:08 | 49.75613 | 14.50848 | 7003 ft | 173 kts | 135° |
| 2026-05-07 19:08 | 49.74851 | 14.52102 | 7003 ft | 173 kts | 135° |
| 2026-05-07 19:08 | 49.74106 | 14.53331 | 7003 ft | 172 kts | 135° |
| 2026-05-07 19:09 | 49.73360 | 14.54558 | 7005 ft | 172 kts | 135° |
| 2026-05-07 19:09 | 49.72585 | 14.55833 | 7007 ft | 172 kts | 135° |
| 2026-05-07 19:09 | 49.71836 | 14.57065 | 7006 ft | 172 kts | 135° |
| 2026-05-07 19:09 | 49.71076 | 14.58313 | 7007 ft | 172 kts | 135° |
| 2026-05-07 19:10 | 49.70314 | 14.59565 | 7009 ft | 172 kts | 135° |
| 2026-05-07 19:10 | 49.69561 | 14.60803 | 7011 ft | 172 kts | 135° |
| 2026-05-07 19:10 | 49.68783 | 14.62079 | 7010 ft | 172 kts | 135° |
| 2026-05-07 19:10 | 49.68006 | 14.63353 | 7011 ft | 172 kts | 135° |
| 2026-05-07 19:11 | 49.67234 | 14.64619 | 7011 ft | 172 kts | 135° |
| 2026-05-07 19:11 | 49.66476 | 14.65862 | 7010 ft | 172 kts | 136° |
| 2026-05-07 19:11 | 49.65718 | 14.67102 | 7009 ft | 172 kts | 136° |
| 2026-05-07 19:11 | 49.59988 | 14.76473 | 7007 ft | 172 kts | 136° |
| 2026-05-07 19:12 | 49.57065 | 14.81235 | 7018 ft | 172 kts | 136° |
| 2026-05-07 19:12 | 49.56324 | 14.82443 | 7015 ft | 172 kts | 136° |
| 2026-05-07 19:12 | 49.55571 | 14.83667 | 7015 ft | 172 kts | 136° |
| 2026-05-07 19:12 | 49.54818 | 14.84889 | 7013 ft | 172 kts | 136° |
| 2026-05-07 19:13 | 49.54064 | 14.86114 | 7012 ft | 172 kts | 136° |
| 2026-05-07 19:13 | 49.53325 | 14.87350 | 7007 ft | 173 kts | 130° |
| 2026-05-07 19:13 | 49.52786 | 14.88831 | 7011 ft | 174 kts | 120° |
| 2026-05-07 19:13 | 49.52285 | 14.90343 | 7008 ft | 174 kts | 118° |
| 2026-05-07 19:14 | 49.51786 | 14.91879 | 7008 ft | 174 kts | 118° |
| 2026-05-07 19:14 | 49.51297 | 14.93390 | 7007 ft | 174 kts | 118° |
| 2026-05-07 19:14 | 49.50796 | 14.94930 | 7006 ft | 174 kts | 118° |
| 2026-05-07 19:14 | 49.50301 | 14.96452 | 7006 ft | 174 kts | 118° |
| 2026-05-07 19:15 | 49.49800 | 14.97985 | 7009 ft | 174 kts | 118° |
| 2026-05-07 19:15 | 49.49292 | 14.99541 | 7010 ft | 174 kts | 118° |
| 2026-05-07 19:15 | 49.48793 | 15.01066 | 7009 ft | 174 kts | 118° |
| 2026-05-07 19:15 | 49.48282 | 15.02630 | 7008 ft | 174 kts | 118° |
| 2026-05-07 19:16 | 49.47784 | 15.04150 | 7008 ft | 174 kts | 118° |
| 2026-05-07 19:16 | 49.47270 | 15.05722 | 7006 ft | 174 kts | 119° |
| 2026-05-07 19:16 | 49.46767 | 15.07255 | 7007 ft | 174 kts | 119° |
| 2026-05-07 19:16 | 49.46256 | 15.08814 | 7006 ft | 175 kts | 119° |
| 2026-05-07 19:17 | 49.45743 | 15.10377 | 7004 ft | 175 kts | 119° |
| 2026-05-07 19:17 | 49.45222 | 15.11961 | 7007 ft | 175 kts | 119° |
| 2026-05-07 19:17 | 49.44715 | 15.13501 | 7007 ft | 175 kts | 119° |
| 2026-05-07 19:17 | 49.44207 | 15.15045 | 7010 ft | 175 kts | 119° |
| 2026-05-07 19:18 | 49.43695 | 15.16599 | 7007 ft | 175 kts | 119° |
| 2026-05-07 19:18 | 49.43186 | 15.18145 | 7007 ft | 175 kts | 119° |
| 2026-05-07 19:18 | 49.42680 | 15.19682 | 7005 ft | 175 kts | 119° |
| 2026-05-07 19:18 | 49.39639 | 15.28891 | 7005 ft | 175 kts | 119° |
| 2026-05-07 19:19 | 49.31522 | 15.53318 | 7008 ft | 174 kts | 119° |
| 2026-05-07 19:19 | 49.23292 | 15.77816 | 6992 ft | 174 kts | 120° |
| 2026-05-07 19:19 | 49.16262 | 15.98582 | 6980 ft | 172 kts | 121° |
| 2026-05-07 19:19 | 49.15730 | 16.00148 | 7002 ft | 171 kts | 121° |
| 2026-05-07 19:20 | 49.15211 | 16.01771 | 7001 ft | 173 kts | 110° |
| 2026-05-07 19:20 | 49.14797 | 16.03491 | 7009 ft | 169 kts | 125° |
| 2026-05-07 19:20 | 49.14617 | 16.03944 | 7009 ft | 170 kts | 124° |
| 2026-05-07 19:20 | 49.14471 | 16.04335 | 7010 ft | 170 kts | 122° |
| 2026-05-07 19:21 | 49.14165 | 16.05152 | 7008 ft | 171 kts | 123° |
| 2026-05-07 19:21 | 49.13730 | 16.06304 | 7011 ft | 172 kts | 123° |
| 2026-05-07 19:21 | 49.06183 | 16.28155 | 7014 ft | 173 kts | 120° |
| 2026-05-07 19:21 | 48.97859 | 16.52287 | 7012 ft | 174 kts | 120° |
| 2026-05-07 19:22 | 48.89359 | 16.76723 | 7002 ft | 174 kts | 120° |
| 2026-05-07 19:22 | 48.83982 | 16.91634 | 6983 ft | 174 kts | 117° |
| 2026-05-07 19:22 | 48.83427 | 16.93251 | 6984 ft | 175 kts | 118° |
| 2026-05-07 19:22 | 48.82860 | 16.94907 | 6986 ft | 175 kts | 118° |
| 2026-05-07 19:23 | 48.82304 | 16.96507 | 6989 ft | 174 kts | 118° |
| 2026-05-07 19:23 | 48.81735 | 16.98130 | 6994 ft | 174 kts | 119° |
| 2026-05-07 19:23 | 48.81163 | 16.99752 | 6995 ft | 175 kts | 118° |
| 2026-05-07 19:23 | 48.80595 | 17.01359 | 6998 ft | 175 kts | 118° |
| 2026-05-07 19:24 | 48.80027 | 17.02971 | 6993 ft | 175 kts | 118° |
| 2026-05-07 19:24 | 48.79465 | 17.04562 | 6998 ft | 174 kts | 118° |
| 2026-05-07 19:24 | 48.78887 | 17.06189 | 6993 ft | 174 kts | 118° |
| 2026-05-07 19:24 | 48.78320 | 17.07798 | 6992 ft | 174 kts | 116° |
| 2026-05-07 19:25 | 48.77933 | 17.09528 | 6976 ft | 174 kts | 118° |
| 2026-05-07 19:25 | 48.77312 | 17.11090 | 6988 ft | 173 kts | 120° |
| 2026-05-07 19:25 | 48.76701 | 17.12650 | 6982 ft | 174 kts | 120° |
| 2026-05-07 19:25 | 48.76101 | 17.14228 | 6985 ft | 173 kts | 119° |
| 2026-05-07 19:26 | 48.75513 | 17.15812 | 6985 ft | 173 kts | 119° |
| 2026-05-07 19:26 | 48.74924 | 17.17427 | 6986 ft | 174 kts | 119° |
| 2026-05-07 19:26 | 48.74347 | 17.19022 | 6986 ft | 174 kts | 118° |
| 2026-05-07 19:26 | 48.73771 | 17.20622 | 6984 ft | 174 kts | 118° |
| 2026-05-07 19:27 | 48.73193 | 17.22235 | 6984 ft | 174 kts | 118° |
| 2026-05-07 19:27 | 48.72624 | 17.23828 | 6990 ft | 174 kts | 118° |
| 2026-05-07 19:27 | 48.72051 | 17.25426 | 6988 ft | 174 kts | 118° |
| 2026-05-07 19:27 | 48.71482 | 17.27014 | 6989 ft | 174 kts | 118° |
| 2026-05-07 19:28 | 48.70906 | 17.28633 | 6990 ft | 174 kts | 118° |
| 2026-05-07 19:28 | 48.70278 | 17.30394 | 6987 ft | 175 kts | 118° |
| 2026-05-07 19:28 | 48.68836 | 17.34410 | 6995 ft | 175 kts | 118° |
| 2026-05-07 19:28 | 48.68257 | 17.36022 | 6994 ft | 174 kts | 118° |
| 2026-05-07 19:29 | 48.67677 | 17.37645 | 6994 ft | 174 kts | 118° |
| 2026-05-07 19:29 | 48.67099 | 17.39259 | 6993 ft | 174 kts | 118° |
| 2026-05-07 19:29 | 48.66530 | 17.40847 | 6990 ft | 173 kts | 118° |
| 2026-05-07 19:29 | 48.65821 | 17.42308 | 6977 ft | 173 kts | 146° |
| 2026-05-07 19:30 | 48.64724 | 17.42994 | 6998 ft | 171 kts | 162° |
| 2026-05-07 19:30 | 48.63591 | 17.43508 | 7000 ft | 171 kts | 166° |
| 2026-05-07 19:30 | 48.62436 | 17.43954 | 6870 ft | 172 kts | 168° |
| 2026-05-07 19:30 | 48.61308 | 17.44336 | 6506 ft | 178 kts | 169° |
| 2026-05-07 19:31 | 48.60154 | 17.44691 | 6174 ft | 179 kts | 170° |
| 2026-05-07 19:31 | 48.58998 | 17.45027 | 6022 ft | 174 kts | 170° |
| 2026-05-07 19:31 | 48.57913 | 17.45336 | 6000 ft | 169 kts | 171° |
| 2026-05-07 19:31 | 48.56795 | 17.45647 | 5997 ft | 166 kts | 171° |
| 2026-05-07 19:32 | 48.55735 | 17.45941 | 5997 ft | 163 kts | 171° |
| 2026-05-07 19:32 | 48.54613 | 17.46254 | 5998 ft | 162 kts | 171° |
| 2026-05-07 19:32 | 48.53533 | 17.46553 | 6000 ft | 161 kts | 171° |
| 2026-05-07 19:32 | 48.52425 | 17.46858 | 6001 ft | 161 kts | 171° |
| 2026-05-07 19:33 | 48.51343 | 17.47158 | 6005 ft | 161 kts | 170° |
| 2026-05-07 19:33 | 48.50250 | 17.47462 | 6006 ft | 161 kts | 170° |
| 2026-05-07 19:33 | 48.49165 | 17.47763 | 6004 ft | 161 kts | 170° |
| 2026-05-07 19:33 | 48.48094 | 17.48058 | 5866 ft | 156 kts | 170° |
| 2026-05-07 19:34 | 48.47055 | 17.48349 | 5593 ft | 159 kts | 170° |
| 2026-05-07 19:34 | 48.45998 | 17.48644 | 5332 ft | 159 kts | 170° |
| 2026-05-07 19:34 | 48.44941 | 17.48935 | 5086 ft | 158 kts | 170° |
| 2026-05-07 19:34 | 48.43871 | 17.49232 | 4837 ft | 157 kts | 170° |
| 2026-05-07 19:35 | 48.43135 | 17.49435 | 4659 ft | 157 kts | 170° |
| 2026-05-07 19:35 | 48.42601 | 17.49582 | 4542 ft | 156 kts | 170° |
| 2026-05-07 19:35 | 48.41565 | 17.49868 | 4300 ft | 155 kts | 170° |
| 2026-05-07 19:35 | 48.40533 | 17.50155 | 4057 ft | 155 kts | 170° |
| 2026-05-07 19:36 | 48.39499 | 17.50440 | 3814 ft | 154 kts | 170° |
| 2026-05-07 19:36 | 48.38473 | 17.50618 | 3564 ft | 152 kts | 189° |
| 2026-05-07 19:36 | 48.37548 | 17.50052 | 3255 ft | 148 kts | 211° |
| 2026-05-07 19:36 | 48.36723 | 17.49216 | 2959 ft | 146 kts | 219° |
| 2026-05-07 19:37 | 48.35956 | 17.48287 | 2665 ft | 144 kts | 223° |
| 2026-05-07 19:37 | 48.35242 | 17.47363 | 2514 ft | 133 kts | 224° |
| 2026-05-07 19:37 | 48.34601 | 17.46501 | 2496 ft | 128 kts | 225° |
| 2026-05-07 19:37 | 48.33938 | 17.45590 | 2503 ft | 138 kts | 225° |
| 2026-05-07 19:38 | 48.33223 | 17.44605 | 2502 ft | 144 kts | 225° |
| 2026-05-07 19:38 | 48.32487 | 17.43593 | 2500 ft | 148 kts | 224° |
| 2026-05-07 19:38 | 48.31733 | 17.42555 | 2509 ft | 149 kts | 225° |
| 2026-05-07 19:38 | 48.31099 | 17.41353 | 2496 ft | 150 kts | 230° |
| 2026-05-07 19:39 | 48.30307 | 17.40355 | 2499 ft | 150 kts | 225° |
| 2026-05-07 19:39 | 48.29536 | 17.39315 | 2501 ft | 151 kts | 225° |
| 2026-05-07 19:39 | 48.28779 | 17.38255 | 2499 ft | 151 kts | 226° |
| 2026-05-07 19:39 | 48.28014 | 17.37166 | 2502 ft | 151 kts | 226° |
| 2026-05-07 19:40 | 48.27267 | 17.36087 | 2503 ft | 151 kts | 227° |
| 2026-05-07 19:40 | 48.26513 | 17.34979 | 2497 ft | 151 kts | 226° |
| 2026-05-07 19:40 | 48.25776 | 17.33905 | 2492 ft | 152 kts | 226° |
| 2026-05-07 19:40 | 48.24995 | 17.32775 | 2312 ft | 161 kts | 226° |
| 2026-05-07 19:41 | 48.24202 | 17.31627 | 2114 ft | 152 kts | 227° |
| 2026-05-07 19:41 | 48.23508 | 17.30637 | 1917 ft | 123 kts | 227° |
| 2026-05-07 19:41 | 48.22983 | 17.29888 | 1801 ft | 93 kts | 229° |
| 2026-05-07 19:41 | 48.22562 | 17.29281 | 1676 ft | 80 kts | 230° |
| 2026-05-07 19:42 | 48.22164 | 17.28699 | 1581 ft | 82 kts | 230° |
| 2026-05-07 19:42 | 48.21752 | 17.28098 | 1480 ft | 85 kts | 229° |
| 2026-05-07 19:42 | 48.21334 | 17.27491 | 1368 ft | 87 kts | 229° |
| 2026-05-07 19:42 | 48.20908 | 17.26876 | 1257 ft | 88 kts | 229° |
| 2026-05-07 19:43 | 48.20484 | 17.26270 | 1155 ft | 84 kts | 229° |
| 2026-05-07 19:43 | 48.20073 | 17.25677 | 1037 ft | 84 kts | 228° |
| 2026-05-07 19:43 | 48.19662 | 17.25085 | 922 ft | 84 kts | 228° |
| 2026-05-07 19:43 | 48.19259 | 17.24506 | 814 ft | 81 kts | 228° |
| 2026-05-07 19:44 | 48.18862 | 17.23939 | 706 ft | 80 kts | 228° |
| 2026-05-07 19:44 | 48.18473 | 17.23374 | 615 ft | 79 kts | 227° |
| 2026-05-07 19:44 | 48.18086 | 17.22823 | 506 ft | 79 kts | 227° |
| 2026-05-07 19:44 | 48.17724 | 17.22312 | 420 ft | 61 kts | 226° |
| 2026-05-07 19:45 | 48.17480 | 17.21955 | 423 ft | 43 kts | 225° |
| 2026-05-07 19:45 | 48.17260 | 17.21640 | 423 ft | 49 kts | 223° |
| 2026-05-07 19:45 | 48.17065 | 17.21367 | 423 ft | 24 kts | 212° |
| 2026-05-07 19:45 | 48.16948 | 17.21211 | 423 ft | 25 kts | 228° |
| 2026-05-07 19:46 | 48.16850 | 17.21149 | 423 ft | 0 kts | 172° |
| 2026-05-07 19:46 | 48.16855 | 17.21118 | 423 ft | 12 kts | 317° |
| 2026-05-07 19:47 | 48.16925 | 17.21021 | 423 ft | 17 kts | 315° |
| 2026-05-07 19:47 | 48.16938 | 17.21002 | 423 ft | 0 kts | 312° |
| 2026-05-07 19:47 | 48.16948 | 17.20988 | 423 ft | 0 kts | 319° |
| 2026-05-07 19:48 | 48.16954 | 17.20980 | 423 ft | 6 kts | 319° |
| 2026-05-07 19:48 | 48.17005 | 17.20883 | 423 ft | 17 kts | 292° |
| 2026-05-07 19:48 | 48.16949 | 17.20734 | 425 ft | 19 kts | 226° |
| 2026-05-07 19:49 | 48.16852 | 17.20582 | 426 ft | 22 kts | 225° |
| 2026-05-07 19:49 | 48.16733 | 17.20410 | 426 ft | 25 kts | 223° |
| 2026-05-07 19:49 | 48.16600 | 17.20236 | 426 ft | 27 kts | 222° |
| 2026-05-07 19:49 | 48.16457 | 17.20057 | 426 ft | 27 kts | 220° |
| 2026-05-07 19:50 | 48.16388 | 17.19871 | 429 ft | 17 kts | 290° |
| 2026-05-07 19:50 | 48.16435 | 17.19748 | 430 ft | 13 kts | 309° |
| 2026-05-07 19:50 | 48.16494 | 17.19645 | 430 ft | 11 kts | 330° |
| 2026-05-07 19:50 | 48.16516 | 17.19647 | 430 ft | 0 kts | 27° |